Nova Petropolis, Brazil
Current Conditions -  °F | °C
As of 9:00 AM on Friday 24 Oct 2014 (Local Time) from SBCO Reporting Station
Haze Haze  
Wind Chill: 64°   Ceiling: 400
Heat Index: 64°   Visibility: 1.2mi
Dew Point: 64°   Wind: 3mph
Humidity: 100%   Direction: 80°E
Pressure: 29.97"   Gusts: NA
Location:  29.38°S, 51.12°W
Report Text: SBCO 241100Z 08003KT 2000 BR OVC004 18/18 Q1015
Loading
Personal Weather Stations






























Interactive Weather Map
Tropical Storm Tracking
New forecast layout! Learn more

10-Day Weather Forecast

Advertisements
Track Severe Weather on mobile